Time;durP1;ratioP1;P1;durP2;ratioP2;P2;SDS_P1;SDS_P2;PMS_P1;PMS_P2;Temp;Humidity;BMP_temperature;BMP_pressure;BME280_temperature;BME280_humidity;BME280_pressure;Samples;Min_cycle;Max_cycle;Signal;HPM_P1;HPM_P2
2022/06/03 00:01:47;;;;;;;;;33.00;30.25;;;;;25.61;54.89;99656.97;5025643;28;8891;-76
2022/06/03 00:04:37;;;;;;;;;34.75;32.25;;;;;25.57;55.17;99663.47;5063419;28;8867;-77
2022/06/03 00:07:21;;;;;;;;;38.00;33.25;;;;;25.54;54.38;99655.66;5086914;28;9107;-77
2022/06/03 00:10:14;;;;;;;;;40.50;34.75;;;;;25.51;54.75;99658.50;5086691;28;8844;-80
2022/06/03 00:12:53;;;;;;;;;37.00;33.50;;;;;25.48;55.19;99654.22;5086703;28;8844;-76
2022/06/03 00:15:39;;;;;;;;;37.00;34.00;;;;;25.46;56.19;99653.47;5087889;28;10006;-74
2022/06/03 00:18:48;;;;;;;;;41.50;36.00;;;;;25.46;55.89;99647.25;5086677;28;8863;-79
2022/06/03 00:21:39;;;;;;;;;38.75;35.25;;;;;25.41;56.04;99644.00;5027394;28;8924;-76
2022/06/03 00:24:23;;;;;;;;;39.75;35.00;;;;;25.37;56.25;99655.78;5027978;28;8975;-76
2022/06/03 00:27:08;;;;;;;;;40.00;33.50;;;;;25.31;56.57;99656.19;5027432;28;8862;-77
2022/06/03 00:30:04;;;;;;;;;38.50;35.00;;;;;25.24;56.08;99661.88;5023220;28;8895;-76
2022/06/03 00:33:00;;;;;;;;;38.50;34.00;;;;;25.18;56.45;99661.34;5044532;28;9059;-79
2022/06/03 00:35:42;;;;;;;;;39.25;34.00;;;;;25.16;56.82;99661.47;4949934;28;8906;-77
2022/06/03 00:38:32;;;;;;;;;39.50;35.50;;;;;25.09;57.22;99662.78;4965314;28;8899;-78
2022/06/03 00:41:25;;;;;;;;;39.00;35.00;;;;;25.10;57.31;99670.69;4963538;28;8889;-77
2022/06/03 00:44:12;;;;;;;;;44.00;37.75;;;;;25.13;56.93;99661.63;4965928;28;8872;-77
2022/06/03 00:47:04;;;;;;;;;38.25;35.25;;;;;25.14;56.86;99660.69;4934211;28;8910;-78
2022/06/03 00:49:49;;;;;;;;;36.50;34.00;;;;;25.14;57.01;99667.81;4949672;28;9032;-76
2022/06/03 00:53:06;;;;;;;;;37.25;33.50;;;;;25.15;56.28;99669.56;4934724;28;8898;-75
2022/06/03 00:55:59;;;;;;;;;35.50;33.50;;;;;25.14;56.33;99671.38;4932426;28;8886;-76
2022/06/03 00:58:48;;;;;;;;;33.25;30.50;;;;;25.12;55.86;99667.06;4966155;28;8960;-76
2022/06/03 01:01:28;;;;;;;;;32.00;31.25;;;;;25.08;55.62;99664.59;4949377;28;8874;-75
2022/06/03 01:04:16;;;;;;;;;42.25;37.00;;;;;25.09;56.03;99665.44;4946899;28;8912;-76
2022/06/03 01:06:56;;;;;;;;;36.75;33.25;;;;;25.01;55.90;99659.66;4965426;28;8975;-77
2022/06/03 01:09:47;;;;;;;;;38.75;33.50;;;;;25.02;56.35;99658.72;4964203;28;9003;-76
2022/06/03 01:12:36;;;;;;;;;34.75;32.75;;;;;25.02;55.56;99664.91;4965712;28;8876;-76
2022/06/03 01:15:33;;;;;;;;;31.75;30.00;;;;;25.03;55.31;99671.13;5027924;28;9436;-77
2022/06/03 01:18:17;;;;;;;;;25.75;25.75;;;;;24.88;55.58;99671.06;4932861;29;8904;-76
2022/06/03 01:21:01;;;;;;;;;37.25;33.25;;;;;24.77;56.10;99678.81;4930660;29;8889;-76
2022/06/03 01:24:02;;;;;;;;;33.25;30.00;;;;;24.76;56.20;99670.91;4929756;28;9682;-75
2022/06/03 01:26:57;;;;;;;;;30.20;29.40;;;;;24.71;56.01;99677.38;4873973;29;8874;-79
2022/06/03 01:29:41;;;;;;;;;26.00;25.40;;;;;24.64;56.08;99677.81;4839751;29;9046;-78
2022/06/03 01:32:56;;;;;;;;;28.00;27.20;;;;;24.66;56.06;99670.59;4877490;29;9120;-74
2022/06/03 01:35:57;;;;;;;;;25.60;24.80;;;;;24.47;57.12;99676.06;4873759;29;9629;-76
2022/06/03 01:38:43;;;;;;;;;28.00;26.80;;;;;24.43;57.47;99683.38;4888124;29;9640;-76
2022/06/03 01:41:35;;;;;;;;;29.80;28.80;;;;;24.41;57.82;99679.94;4888140;29;8889;-76
2022/06/03 01:44:27;;;;;;;;;31.00;30.00;;;;;24.10;59.79;99689.63;4891685;29;8878;-75
2022/06/03 01:47:17;;;;;;;;;34.50;31.75;;;;;23.43;62.44;99698.47;4829510;29;8878;-77
2022/06/03 01:50:17;;;;;;;;;33.50;29.75;;;;;22.83;64.35;99701.41;4884065;29;8897;-75
2022/06/03 01:53:13;;;;;;;;;32.25;30.25;;;;;22.86;64.23;99698.63;4877174;29;8873;-79
2022/06/03 01:56:21;;;;;;;;;37.75;32.50;;;;;22.89;64.36;99704.66;4965361;28;8876;-77
2022/06/03 01:59:23;;;;;;;;;31.00;31.00;;;;;22.97;64.08;99693.63;4977613;28;8881;-77
2022/06/03 02:02:26;;;;;;;;;38.50;34.00;;;;;23.22;63.55;99698.59;4940470;28;8955;-76
2022/06/03 02:05:24;;;;;;;;;35.50;33.25;;;;;23.42;62.35;99699.38;5011568;28;8927;-75
2022/06/03 02:08:15;;;;;;;;;40.25;35.00;;;;;23.49;62.28;99706.97;5054770;28;8856;-79
2022/06/03 02:11:27;;;;;;;;;31.00;30.25;;;;;23.59;61.56;99699.41;5089096;28;8852;-74
2022/06/03 02:14:33;;;;;;;;;33.75;31.00;;;;;23.64;61.57;99693.81;5047439;28;8975;-76
2022/06/03 02:17:42;;;;;;;;;44.75;38.25;;;;;23.75;62.03;99694.97;4911520;29;8859;-77
2022/06/03 02:20:58;;;;;;;;;47.25;40.00;;;;;23.85;62.04;99698.03;4856429;29;8984;-76
2022/06/03 02:24:05;;;;;;;;;48.50;40.75;;;;;23.92;62.05;99702.09;4854386;29;8889;-77
2022/06/03 02:27:04;;;;;;;;;52.75;42.75;;;;;23.96;61.98;99710.81;4854472;29;8924;-77
2022/06/03 02:33:13;;;;;;;;;54.75;44.50;;;;;23.94;62.14;99715.34;4817595;29;8878;-78
2022/06/03 02:36:03;;;;;;;;;50.00;42.00;;;;;23.89;62.53;99707.63;4788432;29;8893;-76
2022/06/03 02:38:48;;;;;;;;;47.25;40.50;;;;;23.90;62.41;99717.31;4818101;29;8889;-76
2022/06/03 02:41:37;;;;;;;;;49.25;41.50;;;;;23.89;62.41;99722.72;4803471;29;8890;-75
2022/06/03 02:44:37;;;;;;;;;50.50;42.75;;;;;23.87;62.41;99724.59;4804573;29;8990;-74
2022/06/03 02:47:52;;;;;;;;;52.75;45.00;;;;;23.84;62.55;99714.13;4769063;29;8967;-75
2022/06/03 02:50:49;;;;;;;;;56.00;46.00;;;;;23.83;62.78;99718.56;4813444;29;9014;-75
2022/06/03 02:54:03;;;;;;;;;55.50;46.50;;;;;23.82;62.71;99710.66;4843217;29;8908;-76
2022/06/03 02:57:03;;;;;;;;;54.25;45.00;;;;;23.79;62.85;99716.16;4807887;29;8916;-76
2022/06/03 02:59:57;;;;;;;;;52.50;43.75;;;;;23.75;63.27;99716.28;4854177;29;8875;-76
2022/06/03 03:02:36;;;;;;;;;58.50;47.50;;;;;23.72;63.84;99713.81;4909785;29;9025;-76
2022/06/03 03:05:20;;;;;;;;;55.50;46.50;;;;;23.58;64.27;99716.31;4912178;29;8905;-76
2022/06/03 03:08:08;;;;;;;;;50.50;41.75;;;;;23.60;64.43;99716.22;4910296;29;9583;-75
2022/06/03 03:11:08;;;;;;;;;57.00;47.00;;;;;23.59;64.42;99722.47;4925315;29;8986;-78
2022/06/03 03:14:14;;;;;;;;;55.75;46.75;;;;;23.62;64.15;99720.53;4910310;29;9046;-76
2022/06/03 03:17:12;;;;;;;;;61.25;50.00;;;;;23.65;64.10;99717.72;4835245;29;8887;-76
2022/06/03 03:20:13;;;;;;;;;72.33;59.33;;;;;23.67;63.96;99721.16;4834618;29;9645;-77
2022/06/03 03:22:59;;;;;;;;;56.25;46.75;;;;;23.66;63.92;99713.25;4820122;29;9485;-77
2022/06/03 03:25:41;;;;;;;;;58.25;46.75;;;;;23.69;64.06;99718.41;4911126;29;8878;-76
2022/06/03 03:28:39;;;;;;;;;55.75;46.25;;;;;23.72;63.89;99713.81;4895556;29;8859;-78
2022/06/03 03:31:26;;;;;;;;;57.75;46.75;;;;;23.54;64.44;99720.91;4911316;29;8847;-75
2022/06/03 03:34:10;;;;;;;;;57.50;46.75;;;;;23.25;65.53;99718.88;4988281;28;8866;-76
2022/06/03 03:37:06;;;;;;;;;52.75;43.00;;;;;23.07;66.09;99724.16;4975445;28;8904;-76
2022/06/03 03:39:59;;;;;;;;;53.25;45.50;;;;;23.10;65.43;99721.38;4949173;28;8854;-78
2022/06/03 03:42:55;;;;;;;;;54.25;45.50;;;;;23.26;65.33;99724.13;4948779;28;8856;-76
2022/06/03 03:45:47;;;;;;;;;53.00;45.50;;;;;23.29;65.07;99718.66;4903562;28;8853;-75
2022/06/03 03:49:09;;;;;;;;;59.00;48.50;;;;;23.40;64.71;99718.09;4948944;28;8881;-77
2022/06/03 03:52:13;;;;;;;;;60.25;49.00;;;;;23.50;64.41;99721.16;4949362;28;8892;-77
2022/06/03 03:55:06;;;;;;;;;54.75;45.75;;;;;23.57;64.77;99717.22;4950605;28;8869;-77
2022/06/03 03:58:09;;;;;;;;;57.50;47.00;;;;;23.62;64.10;99712.53;4962292;28;9693;-76
2022/06/03 04:01:25;;;;;;;;;52.00;44.00;;;;;23.70;63.99;99720.13;4952296;28;8856;-75
2022/06/03 04:04:22;;;;;;;;;77.75;66.25;;;;;23.66;63.97;99722.09;4968258;28;8977;-75
2022/06/03 04:07:26;;;;;;;;;52.00;44.50;;;;;23.64;64.37;99721.31;4967575;28;10575;-76
2022/06/03 04:10:23;;;;;;;;;54.25;45.75;;;;;23.70;63.88;99720.97;4876516;29;9191;-75
2022/06/03 04:13:42;;;;;;;;;52.50;43.50;;;;;23.81;63.77;99717.78;4873338;29;8914;-77
2022/06/03 04:16:50;;;;;;;;;51.00;42.75;;;;;23.86;63.39;99723.75;4891554;29;8896;-76
2022/06/03 04:20:00;;;;;;;;;128.00;122.25;;;;;23.97;63.27;99716.97;4881823;29;8902;-76
2022/06/03 04:22:55;;;;;;;;;60.00;48.00;;;;;24.07;62.60;99716.41;4913646;29;11650;-76
2022/06/03 04:25:54;;;;;;;;;51.50;43.25;;;;;24.13;62.31;99709.91;4913591;29;8859;-78
2022/06/03 04:28:52;;;;;;;;;51.00;43.25;;;;;24.21;62.15;99714.81;4879242;29;8850;-78
2022/06/03 04:31:59;;;;;;;;;51.75;42.75;;;;;24.35;61.86;99703.38;4902554;29;8970;-75
2022/06/03 04:35:12;;;;;;;;;50.25;42.75;;;;;24.42;61.49;99694.97;4929434;29;8862;-77
2022/06/03 04:38:17;;;;;;;;;50.75;42.25;;;;;24.45;61.38;99702.78;4929794;29;9634;-76
2022/06/03 04:41:22;;;;;;;;;52.25;41.75;;;;;24.31;61.13;99713.38;4932477;29;8895;-76
2022/06/03 04:44:29;;;;;;;;;55.00;44.75;;;;;24.23;61.39;99699.59;4910693;29;8859;-76
2022/06/03 04:47:42;;;;;;;;;47.25;39.50;;;;;24.12;60.11;99694.84;4885518;29;8984;-77
2022/06/03 04:50:41;;;;;;;;;42.25;36.75;;;;;24.13;59.52;99700.09;4913319;29;8859;-75
2022/06/03 04:53:45;;;;;;;;;45.75;39.25;;;;;24.01;60.30;99699.91;4929751;29;8871;-77
2022/06/03 04:57:03;;;;;;;;;42.00;37.50;;;;;24.01;60.46;99695.44;4889352;29;8986;-77
2022/06/03 05:00:20;;;;;;;;;47.75;40.75;;;;;24.10;60.55;99696.72;4835835;29;9025;-75
2022/06/03 05:03:37;;;;;;;;;46.00;39.00;;;;;24.31;59.61;99689.38;4799047;29;8915;-75
2022/06/03 05:06:39;;;;;;;;;38.00;34.00;;;;;24.58;58.95;99692.34;4768202;29;8906;-74
2022/06/03 05:09:40;;;;;;;;;37.75;32.00;;;;;24.77;56.04;99691.31;4730384;30;8959;-76
2022/06/03 05:12:39;;;;;;;;;27.60;27.00;;;;;24.98;55.38;99683.88;4729006;30;8877;-76
2022/06/03 05:15:49;;;;;;;;;31.00;27.00;;;;;25.21;54.71;99680.72;4745062;30;8967;-76
2022/06/03 05:18:52;;;;;;;;;29.25;28.50;;;;;25.41;53.80;99684.91;4734026;30;8884;-75
2022/06/03 05:21:52;;;;;;;;;38.25;33.25;;;;;25.11;54.58;99692.88;4712358;30;8952;-75
2022/06/03 05:25:14;;;;;;;;;30.75;30.25;;;;;24.66;55.58;99706.09;4767813;29;8887;-78
2022/06/03 05:28:21;;;;;;;;;44.00;38.00;;;;;24.79;55.84;99708.94;4715612;30;9180;-77
2022/06/03 05:31:36;;;;;;;;;42.75;36.50;;;;;25.12;55.38;99704.41;4755484;29;9029;-78
2022/06/03 05:34:40;;;;;;;;;39.50;35.00;;;;;25.24;55.37;99715.28;4793531;29;8888;-77
2022/06/03 05:37:57;;;;;;;;;40.00;34.50;;;;;25.36;54.93;99716.34;4820175;29;8900;-75
2022/06/03 05:40:36;;;;;;;;;33.75;32.50;;;;;25.46;53.48;99730.00;4796879;29;9039;-75
2022/06/03 05:43:41;;;;;;;;;36.75;32.25;;;;;25.09;53.59;99735.66;4784519;29;8895;-77
2022/06/03 05:46:17;;;;;;;;;26.75;25.50;;;;;25.20;51.95;99742.19;4824598;29;8922;-75
2022/06/03 05:49:07;;;;;;;;;29.00;28.75;;;;;25.06;53.29;99740.31;4875185;29;8900;-76
2022/06/03 05:52:25;;;;;;;;;27.00;25.50;;;;;24.97;53.80;99743.50;4870239;29;8881;-75
2022/06/03 05:55:15;;;;;;;;;28.00;26.50;;;;;25.18;52.51;99734.28;4818728;29;8907;-76
2022/06/03 05:58:03;;;;;;;;;29.50;29.50;;;;;25.32;53.28;99732.66;4819271;29;8876;-78
2022/06/03 06:00:57;;;;;;;;;27.25;27.00;;;;;25.09;53.21;99745.50;4803714;29;9552;-74
2022/06/03 06:03:39;;;;;;;;;24.75;24.50;;;;;25.44;53.00;99743.47;4831444;29;8889;-78
2022/06/03 06:06:25;;;;;;;;;22.75;21.00;;;;;26.04;51.80;99745.22;4874951;29;8915;-80
2022/06/03 06:09:12;;;;;;;;;35.75;33.00;;;;;26.47;51.65;99743.53;4867443;29;8887;-79
2022/06/03 06:12:08;;;;;;;;;30.25;29.00;;;;;26.97;51.80;99752.78;4964976;28;8862;-76
2022/06/03 06:14:51;;;;;;;;;29.00;28.50;;;;;27.34;50.29;99745.91;4988845;28;8856;-68
2022/06/03 06:17:40;;;;;;;;;28.75;27.75;;;;;27.66;48.95;99745.53;4987273;28;8882;-70
2022/06/03 06:20:19;;;;;;;;;25.00;20.75;;;;;27.40;48.31;99747.31;4954520;28;8845;-68
2022/06/03 06:22:49;;;;;;;;;28.75;28.00;;;;;26.66;50.23;99751.25;4987569;28;8833;-68
2022/06/03 06:25:25;;;;;;;;;26.75;26.75;;;;;25.89;52.08;99748.81;4986526;28;9716;-76
2022/06/03 06:28:02;;;;;;;;;28.75;28.25;;;;;26.06;51.64;99750.47;4970396;28;8864;-78
2022/06/03 06:30:56;;;;;;;;;26.25;25.75;;;;;26.30;51.47;99742.75;4980156;28;8931;-77
2022/06/03 06:33:59;;;;;;;;;30.25;29.75;;;;;26.49;50.65;99744.28;5060171;28;8996;-74
2022/06/03 06:37:04;;;;;;;;;24.50;24.25;;;;;26.81;50.47;99740.41;4942068;28;8850;-79
2022/06/03 06:40:03;;;;;;;;;26.00;25.50;;;;;27.06;50.06;99740.63;4934066;28;8838;-75
2022/06/03 06:42:48;;;;;;;;;27.75;27.75;;;;;27.01;48.94;99755.19;4988897;28;8878;-76
2022/06/03 06:45:30;;;;;;;;;27.00;25.00;;;;;26.70;49.73;99764.34;4990149;28;8932;-77
2022/06/03 06:48:10;;;;;;;;;24.75;24.75;;;;;26.76;49.82;99768.44;4971931;28;8847;-76
2022/06/03 06:50:49;;;;;;;;;24.00;23.25;;;;;26.70;49.42;99766.16;4989985;28;8860;-77
2022/06/03 06:53:28;;;;;;;;;27.75;26.50;;;;;26.27;50.78;99775.03;4992531;28;8982;-76
2022/06/03 06:56:08;;;;;;;;;23.75;22.75;;;;;25.88;51.27;99787.19;4988995;28;8838;-76
2022/06/03 06:58:45;;;;;;;;;24.50;23.25;;;;;25.45;52.47;99785.25;4992065;28;8862;-75
2022/06/03 07:01:19;;;;;;;;;24.75;23.75;;;;;25.48;52.57;99789.53;4975727;28;8873;-77
2022/06/03 07:03:57;;;;;;;;;21.25;20.50;;;;;25.71;51.60;99781.97;4971567;28;9074;-76
2022/06/03 07:06:36;;;;;;;;;28.00;27.25;;;;;26.00;51.32;99786.47;4953072;28;8852;-76
2022/06/03 07:09:35;;;;;;;;;29.50;28.25;;;;;26.40;50.01;99780.47;4951820;28;8968;-75
2022/06/03 07:12:13;;;;;;;;;29.25;27.75;;;;;26.77;48.40;99781.72;4926076;28;8907;-76
2022/06/03 07:14:54;;;;;;;;;30.00;29.00;;;;;27.14;47.10;99786.50;5061835;28;8853;-75
2022/06/03 07:20:29;;;;;;;;;29.00;25.75;;;;;27.74;46.11;99790.56;5071478;28;9694;-76
2022/06/03 07:23:11;;;;;;;;;27.75;24.25;;;;;28.06;44.56;99795.59;5087623;28;8849;-76
2022/06/03 07:25:45;;;;;;;;;24.00;21.50;;;;;28.24;43.53;99794.28;5017955;28;9691;-75
2022/06/03 07:28:29;;;;;;;;;23.50;23.25;;;;;28.43;42.20;99796.56;5085689;28;8876;-75
2022/06/03 07:31:10;;;;;;;;;26.50;24.00;;;;;28.65;41.32;99800.41;5067348;28;8863;-74
2022/06/03 07:33:48;;;;;;;;;20.25;19.50;;;;;28.78;41.41;99802.09;5048488;28;8864;-78
2022/06/03 07:36:25;;;;;;;;;18.80;18.80;;;;;28.83;40.21;99807.13;5070686;28;8871;-74
2022/06/03 07:38:58;;;;;;;;;16.50;16.50;;;;;28.91;38.80;99803.88;5088669;28;8859;-76
2022/06/03 07:41:34;;;;;;;;;17.50;17.50;;;;;29.12;39.10;99796.94;5087311;28;8860;-74
2022/06/03 07:44:12;;;;;;;;;17.60;17.60;;;;;29.31;37.74;99795.59;5088169;28;8932;-75
2022/06/03 07:46:49;;;;;;;;;16.40;16.40;;;;;29.41;37.07;99799.31;5087762;28;8844;-74
2022/06/03 07:49:21;;;;;;;;;15.80;14.00;;;;;29.54;36.17;99797.41;5088439;28;8863;-74
2022/06/03 07:51:54;;;;;;;;;17.40;16.00;;;;;29.48;36.94;99797.88;5088195;28;8973;-73
2022/06/03 07:54:28;;;;;;;;;20.00;19.20;;;;;29.63;37.36;99803.94;5087692;28;8920;-74
2022/06/03 07:57:05;;;;;;;;;20.75;20.25;;;;;29.76;37.45;99814.63;5087040;28;8944;-75
2022/06/03 07:59:37;;;;;;;;;19.80;19.40;;;;;29.88;37.06;99813.69;5085128;28;8983;-72
2022/06/03 08:02:14;;;;;;;;;15.20;13.00;;;;;29.97;36.34;99813.97;5087002;28;8890;-76
2022/06/03 08:04:47;;;;;;;;;16.00;15.40;;;;;29.98;35.49;99815.66;5088987;28;8875;-73
2022/06/03 08:12:58;;;;;;;;;13.80;13.80;;;;;30.21;34.77;99808.50;5087104;28;8840;-75
2022/06/03 08:15:30;;;;;;;;;17.20;15.80;;;;;30.34;35.65;99811.13;5087752;28;8840;-75
2022/06/03 08:18:00;;;;;;;;;14.60;14.60;;;;;30.37;35.45;99805.50;5087501;28;8831;-72
2022/06/03 08:20:30;;;;;;;;;11.80;11.40;;;;;30.34;35.72;99797.66;5069214;28;9637;-75
2022/06/03 08:22:59;;;;;;;;;14.60;13.60;;;;;30.38;34.31;99802.69;5086414;28;8835;-73
2022/06/03 08:25:30;;;;;;;;;10.60;10.60;;;;;30.50;34.08;99801.69;5102848;28;9814;-73
2022/06/03 08:28:00;;;;;;;;;11.80;11.80;;;;;30.49;34.00;99810.78;5087885;28;8844;-75
2022/06/03 08:30:30;;;;;;;;;11.80;10.80;;;;;30.59;33.54;99810.03;5088692;28;8856;-74
2022/06/03 08:33:02;;;;;;;;;10.20;10.20;;;;;30.71;33.79;99804.50;5086020;28;8852;-75
2022/06/03 08:35:35;;;;;;;;;15.40;15.40;;;;;30.44;33.17;99810.28;5087213;28;8856;-74
2022/06/03 08:38:10;;;;;;;;;14.00;14.00;;;;;29.81;34.84;99812.47;5086034;28;8912;-76
2022/06/03 08:40:48;;;;;;;;;11.60;10.60;;;;;29.98;34.58;99803.09;5087528;28;8847;-73
2022/06/03 08:43:28;;;;;;;;;8.80;8.80;;;;;30.17;34.99;99809.72;5087965;28;8944;-73
2022/06/03 08:46:05;;;;;;;;;11.80;11.40;;;;;30.23;34.07;99804.72;5087516;28;8843;-74
2022/06/03 08:48:39;;;;;;;;;12.40;12.40;;;;;30.24;34.49;99802.88;5087526;28;8902;-74
2022/06/03 08:51:15;;;;;;;;;9.00;9.00;;;;;30.05;33.87;99808.84;5085016;28;8852;-76
2022/06/03 08:53:50;;;;;;;;;14.00;13.60;;;;;30.23;34.29;99799.34;5084706;28;8860;-76
2022/06/03 08:56:23;;;;;;;;;11.00;11.00;;;;;30.34;34.99;99797.66;5085844;28;8871;-74
2022/06/03 08:59:01;;;;;;;;;9.00;9.00;;;;;30.38;34.53;99805.38;5086415;28;8859;-77
2022/06/03 09:01:38;;;;;;;;;10.20;10.20;;;;;30.35;33.91;99804.75;5088161;28;8835;-75
2022/06/03 09:04:18;;;;;;;;;10.80;10.80;;;;;30.19;33.70;99813.13;5052042;28;8863;-75
2022/06/03 09:07:01;;;;;;;;;14.00;14.00;;;;;30.10;34.61;99806.66;5087267;28;8883;-74
2022/06/03 09:09:36;;;;;;;;;10.40;9.80;;;;;30.21;34.36;99803.09;5087296;28;8852;-72
2022/06/03 09:12:12;;;;;;;;;13.40;13.40;;;;;30.39;34.89;99800.84;5085839;28;8878;-75
2022/06/03 09:14:43;;;;;;;;;12.80;9.00;;;;;30.52;34.65;99797.06;5083180;28;9029;-75
2022/06/03 09:17:39;;;;;;;;;9.80;9.20;;;;;30.49;33.38;99794.63;5087157;28;8860;-74
2022/06/03 09:20:13;;;;;;;;;9.60;8.80;;;;;30.45;33.42;99795.81;5034851;28;8848;-75
2022/06/03 09:22:46;;;;;;;;;8.80;8.80;;;;;30.47;34.07;99803.78;5086596;28;8970;-72
2022/06/03 09:25:17;;;;;;;;;8.80;8.80;;;;;30.51;34.02;99797.16;5084876;28;8852;-74
2022/06/03 09:27:49;;;;;;;;;9.80;8.60;;;;;30.57;33.70;99795.81;5074424;28;8856;-73
2022/06/03 09:30:31;;;;;;;;;9.60;9.60;;;;;30.44;33.53;99799.50;5088015;28;8858;-75
2022/06/03 09:33:05;;;;;;;;;8.60;8.60;;;;;30.43;33.68;99792.41;5068806;28;8843;-74
2022/06/03 09:35:38;;;;;;;;;9.20;9.20;;;;;30.50;34.39;99795.47;5087665;28;8856;-74
2022/06/03 09:38:11;;;;;;;;;12.60;12.60;;;;;30.22;33.98;99799.47;5067941;28;8899;-74
2022/06/03 09:40:43;;;;;;;;;11.60;9.60;;;;;29.90;34.40;99798.28;5087558;28;8844;-76
2022/06/03 09:43:18;;;;;;;;;10.20;9.60;;;;;30.13;34.52;99806.41;5086193;28;9647;-73
2022/06/03 09:45:47;;;;;;;;;10.80;9.80;;;;;30.28;34.46;99805.22;5086799;28;8848;-74
2022/06/03 09:48:20;;;;;;;;;12.00;9.80;;;;;30.45;35.48;99811.97;5077901;28;8879;-73
2022/06/03 09:50:51;;;;;;;;;11.00;10.40;;;;;30.55;34.04;99804.03;5085515;28;8873;-75
2022/06/03 09:53:23;;;;;;;;;11.60;11.60;;;;;30.60;34.36;99811.75;5086736;28;8840;-76
2022/06/03 09:55:55;;;;;;;;;9.20;9.20;;;;;30.63;34.35;99808.81;5086856;28;8889;-67
2022/06/03 09:58:30;;;;;;;;;10.60;10.20;;;;;30.55;34.12;99809.44;5087202;28;8897;-70
2022/06/03 10:01:00;;;;;;;;;11.20;9.80;;;;;30.66;33.80;99812.13;5084277;28;8886;-73
2022/06/03 10:03:29;;;;;;;;;9.60;9.60;;;;;30.84;35.04;99812.44;5085090;28;8851;-69
2022/06/03 10:06:00;;;;;;;;;9.00;9.00;;;;;30.86;33.38;99806.94;5090767;28;8859;-70
2022/06/03 10:12:48;;;;;;;;;12.00;11.40;;;;;30.86;33.31;99812.34;5090614;28;8855;-74
2022/06/03 10:14:05;;;;;;;;;8.20;7.80;;;;;30.47;34.11;99803.78;5047264;28;8873;-70
2022/06/03 10:16:34;;;;;;;;;9.00;9.00;;;;;30.53;33.08;99797.94;5031370;28;8888;-69
2022/06/03 10:19:03;;;;;;;;;9.20;9.20;;;;;30.61;33.25;99811.63;5047235;28;8998;-71
2022/06/03 10:21:33;;;;;;;;;10.00;9.20;;;;;30.64;32.86;99802.44;5047218;28;8892;-69
2022/06/03 10:24:06;;;;;;;;;8.40;8.40;;;;;30.60;32.60;99799.13;5024036;28;8850;-73
2022/06/03 10:26:40;;;;;;;;;10.80;10.80;;;;;30.58;32.99;99798.41;5047105;28;8853;-72
2022/06/03 10:29:11;;;;;;;;;8.60;8.60;;;;;30.66;32.54;99798.66;5047119;28;8846;-69
2022/06/03 10:31:52;;;;;;;;;8.60;8.60;;;;;30.77;32.26;99795.06;5015942;28;8990;-68
2022/06/03 10:34:34;;;;;;;;;11.40;10.00;;;;;30.80;32.00;99791.28;5046821;28;8854;-74
2022/06/03 10:37:07;;;;;;;;;8.80;8.80;;;;;31.03;31.93;99789.44;5031104;28;8972;-69
2022/06/03 10:39:38;;;;;;;;;5.20;5.20;;;;;30.91;31.72;99791.31;5030647;28;8908;-69
2022/06/03 10:42:07;;;;;;;;;9.40;9.40;;;;;31.12;31.42;99787.84;5044684;28;9472;-72
2022/06/03 10:44:37;;;;;;;;;7.60;7.60;;;;;31.15;31.86;99792.97;5047274;28;8842;-71
2022/06/03 10:47:08;;;;;;;;;6.00;5.40;;;;;31.21;32.15;99787.94;5030177;28;8841;-71
2022/06/03 10:49:49;;;;;;;;;8.40;8.40;;;;;31.38;32.21;99796.44;5047304;28;8886;-69
2022/06/03 11:01:14;;;;;;;;;13.00;12.00;;;;;31.73;31.26;99768.38;5087247;28;8902;-81
2022/06/03 11:03:49;;;;;;;;;12.40;12.40;;;;;31.48;31.62;99768.63;5104677;28;8864;-78
2022/06/03 11:06:22;;;;;;;;;11.40;11.40;;;;;31.32;31.34;99762.75;5104867;28;8866;-76
2022/06/03 11:08:54;;;;;;;;;10.20;9.80;;;;;31.59;32.06;99766.84;5088845;28;8864;-76
2022/06/03 11:11:41;;;;;;;;;11.20;11.00;;;;;31.82;32.33;99756.81;5090151;28;8852;-78
2022/06/03 11:14:38;;;;;;;;;9.00;9.00;;;;;32.19;31.04;99765.28;5072115;28;8889;-79
2022/06/03 11:17:11;;;;;;;;;10.00;9.80;;;;;32.41;31.42;99774.19;5079258;28;8851;-77
2022/06/03 11:19:44;;;;;;;;;9.20;9.00;;;;;32.57;30.34;99771.88;5091048;28;8833;-79
2022/06/03 11:22:19;;;;;;;;;9.80;9.80;;;;;32.80;30.81;99775.19;5071649;28;8855;-78
2022/06/03 11:24:55;;;;;;;;;8.20;7.00;;;;;32.98;28.87;99778.06;5090505;28;8936;-75
2022/06/03 11:27:30;;;;;;;;;10.40;10.40;;;;;33.19;28.35;99766.34;5088954;28;9691;-78
2022/06/03 11:30:05;;;;;;;;;7.80;7.80;;;;;33.37;28.52;99767.34;5089354;28;9737;-76
2022/06/03 11:32:37;;;;;;;;;8.60;8.60;;;;;33.69;27.38;99763.50;5089746;28;8868;-77
2022/06/03 11:35:12;;;;;;;;;8.00;8.00;;;;;33.94;27.41;99767.44;5090180;28;8851;-77
2022/06/03 11:37:46;;;;;;;;;9.80;9.80;;;;;34.20;28.08;99760.56;5072337;28;8995;-78
2022/06/03 11:40:22;;;;;;;;;9.20;9.20;;;;;34.47;27.32;99760.59;5089625;28;8855;-76
2022/06/03 11:42:56;;;;;;;;;8.80;8.80;;;;;34.68;26.79;99751.41;5088812;28;8855;-77
2022/06/03 11:45:35;;;;;;;;;8.20;7.60;;;;;34.89;26.79;99748.41;5053682;28;8864;-77
2022/06/03 11:48:10;;;;;;;;;10.00;10.00;;;;;34.89;26.32;99749.25;5089315;28;8864;-78
2022/06/03 11:50:39;;;;;;;;;7.00;7.00;;;;;35.25;25.95;99748.47;5088982;28;8974;-77
2022/06/03 11:53:08;;;;;;;;;9.00;9.00;;;;;35.62;25.96;99751.00;5087918;28;8898;-76
2022/06/03 11:55:39;;;;;;;;;7.60;7.60;;;;;35.47;24.25;99748.00;5089256;28;8859;-75
2022/06/03 11:58:17;;;;;;;;;7.00;7.00;;;;;35.55;24.85;99739.06;5104850;28;8874;-76
2022/06/03 12:00:55;;;;;;;;;8.60;8.60;;;;;35.70;24.75;99734.81;5088935;28;8832;-79
2022/06/03 12:03:37;;;;;;;;;8.40;8.40;;;;;35.70;25.27;99731.25;5089364;28;8858;-78
2022/06/03 12:06:11;;;;;;;;;7.80;7.80;;;;;36.17;24.50;99732.75;5087373;28;8861;-77
2022/06/03 12:08:49;;;;;;;;;7.00;7.00;;;;;36.68;24.19;99729.09;5088334;28;8854;-80
2022/06/03 12:14:33;;;;;;;;;7.00;7.00;;;;;37.95;21.50;99729.69;5088214;28;9021;-75
2022/06/03 12:17:26;;;;;;;;;7.40;7.00;;;;;38.33;21.26;99731.84;5068362;28;8843;-76
2022/06/03 12:19:54;;;;;;;;;8.00;7.20;;;;;38.51;21.14;99734.31;5075270;28;8847;-75
2022/06/03 12:22:41;;;;;;;;;8.20;8.20;;;;;38.81;20.11;99727.19;5089192;28;8872;-78
2022/06/03 12:25:47;;;;;;;;;10.20;10.20;;;;;39.26;19.93;99727.44;5089738;28;8840;-78
2022/06/03 12:28:22;;;;;;;;;10.25;9.75;;;;;39.33;19.14;99717.50;5089481;28;8873;-75
2022/06/03 12:30:55;;;;;;;;;9.75;9.75;;;;;37.54;21.07;99713.41;5087228;28;8897;-75
2022/06/03 12:33:29;;;;;;;;;8.50;8.50;;;;;36.83;21.97;99713.00;5087793;28;8923;-75
2022/06/03 12:36:01;;;;;;;;;9.25;9.25;;;;;35.32;23.60;99709.72;5085175;28;8886;-77
2022/06/03 12:38:56;;;;;;;;;7.25;7.25;;;;;36.15;23.96;99702.19;5088239;28;8909;-80
2022/06/03 12:42:03;;;;;;;;;9.50;9.50;;;;;37.04;22.73;99703.53;5088089;28;8991;-77
2022/06/03 12:44:41;;;;;;;;;12.00;12.00;;;;;37.95;21.35;99696.19;5088151;28;8851;-77
2022/06/03 12:47:42;;;;;;;;;7.50;6.00;;;;;38.77;20.76;99687.69;5088127;28;8840;-77
2022/06/03 12:50:36;;;;;;;;;8.25;8.25;;;;;39.58;20.12;99683.50;5088385;28;8851;-78
2022/06/03 12:53:39;;;;;;;;;6.50;6.50;;;;;39.16;18.92;99684.88;5043111;28;8934;-77
2022/06/03 12:56:13;;;;;;;;;7.50;7.50;;;;;39.01;18.92;99675.78;5046340;28;9032;-76
2022/06/03 12:58:49;;;;;;;;;8.00;8.00;;;;;38.47;19.14;99673.00;5028790;28;8854;-78
2022/06/03 13:02:02;;;;;;;;;6.75;6.75;;;;;37.68;20.23;99664.75;5045740;28;8846;-78
2022/06/03 13:05:15;;;;;;;;;9.25;9.25;;;;;38.79;20.79;99656.50;4909158;29;8981;-79
2022/06/03 13:08:02;;;;;;;;;10.00;9.75;;;;;40.02;19.70;99659.16;4893021;29;9022;-78
2022/06/03 13:11:00;;;;;;;;;5.25;5.25;;;;;40.80;17.69;99652.16;4906977;29;8875;-79
2022/06/03 13:13:51;;;;;;;;;9.00;8.50;;;;;41.63;16.75;99657.13;4890552;29;8907;-79
2022/06/03 13:16:45;;;;;;;;;6.75;6.75;;;;;42.16;16.46;99657.44;4875117;29;8912;-78
2022/06/03 13:19:50;;;;;;;;;8.25;8.25;;;;;42.73;15.75;99657.22;4816244;29;8884;-78
2022/06/03 13:22:29;;;;;;;;;7.00;7.00;;;;;43.25;15.36;99660.25;4816372;29;9738;-80
2022/06/03 13:25:36;;;;;;;;;7.33;7.33;;;;;43.74;15.96;99658.97;4806563;29;8907;-79
2022/06/03 13:28:31;;;;;;;;;7.75;7.75;;;;;44.10;14.80;99649.38;4818081;29;8873;-80